createdAt,value
2019-03-09T00:00:48.435Z,59.49
2019-03-09T00:01:52.345Z,59.59
2019-03-09T00:02:55.815Z,59.61
2019-03-09T00:03:59.255Z,59.59
2019-03-09T00:05:02.751Z,59.57
2019-03-09T00:06:06.218Z,59.59
2019-03-09T00:07:09.933Z,59.63
2019-03-09T00:08:13.416Z,59.67
2019-03-09T00:09:16.867Z,59.69
2019-03-09T00:10:20.310Z,59.70
2019-03-09T00:11:23.784Z,59.81
2019-03-09T00:12:27.225Z,59.95
2019-03-09T00:13:30.700Z,60.03
2019-03-09T00:14:34.192Z,60.01
2019-03-09T00:15:37.702Z,60.00
2019-03-09T00:16:41.171Z,60.01
2019-03-09T00:17:44.614Z,60.02
2019-03-09T00:18:48.077Z,60.01
2019-03-09T00:19:51.719Z,59.97
2019-03-09T00:20:55.188Z,59.97
2019-03-09T00:21:58.805Z,60.02
2019-03-09T00:23:09.975Z,60.02
2019-03-09T00:24:24.494Z,60.09
2019-03-09T00:25:31.994Z,60.15
2019-03-09T00:26:39.766Z,60.18
2019-03-09T00:27:47.916Z,60.15
2019-03-09T00:28:55.724Z,60.21
2019-03-09T00:30:06.582Z,60.15
2019-03-09T00:31:14.084Z,60.18
2019-03-09T00:32:19.167Z,60.08
2019-03-09T00:33:22.639Z,60.09
2019-03-09T00:34:26.103Z,60.13
2019-03-09T00:35:29.850Z,60.16
2019-03-09T00:36:33.316Z,60.18
2019-03-09T00:37:36.758Z,60.21
2019-03-09T00:38:40.227Z,60.21
2019-03-09T00:39:43.685Z,60.19
2019-03-09T00:40:47.133Z,60.24
2019-03-09T00:41:50.606Z,60.32
2019-03-09T00:42:54.040Z,60.36
2019-03-09T00:43:57.533Z,60.41
2019-03-09T00:45:01.006Z,60.46
2019-03-09T00:46:04.449Z,60.50
2019-03-09T00:47:07.998Z,60.56
2019-03-09T00:48:11.443Z,60.61
2019-03-09T00:49:20.590Z,60.58
2019-03-09T00:50:24.038Z,60.85
2019-03-09T00:51:27.481Z,61.23
2019-03-09T00:52:31.131Z,61.09
2019-03-09T00:53:34.696Z,61.09
2019-03-09T00:54:38.148Z,61.12
2019-03-09T00:55:41.633Z,61.17
2019-03-09T00:56:45.078Z,61.09
2019-03-09T00:57:48.521Z,60.95
2019-03-09T00:58:52.014Z,61.00
2019-03-09T00:59:56.696Z,61.14
2019-03-09T01:01:00.167Z,61.10
2019-03-09T01:02:03.829Z,61.10
2019-03-09T01:03:07.312Z,61.10
2019-03-09T01:04:10.803Z,61.07
2019-03-09T01:05:14.789Z,61.07
2019-03-09T01:06:18.299Z,61.09
2019-03-09T01:07:21.841Z,61.12
2019-03-09T01:08:25.305Z,61.45
2019-03-09T01:09:28.847Z,61.40
2019-03-09T01:10:32.316Z,61.24
2019-03-09T01:11:35.765Z,61.13
2019-03-09T01:12:39.506Z,61.02
2019-03-09T01:13:42.943Z,60.92
2019-03-09T01:14:46.385Z,60.88
2019-03-09T01:15:49.859Z,60.95
2019-03-09T01:16:53.305Z,60.89
2019-03-09T01:17:56.773Z,60.85
2019-03-09T01:19:00.333Z,60.74
2019-03-09T01:20:04.814Z,60.74
2019-03-09T01:21:08.283Z,60.80
2019-03-09T01:22:11.789Z,60.76
2019-03-09T01:23:15.372Z,60.78
2019-03-09T01:24:18.861Z,60.90
2019-03-09T01:25:22.404Z,60.88
2019-03-09T01:26:25.876Z,60.82
2019-03-09T01:27:29.342Z,60.83
2019-03-09T01:28:32.786Z,60.89
2019-03-09T01:29:36.263Z,60.79
2019-03-09T01:30:39.788Z,61.32
2019-03-09T01:31:43.242Z,61.22
2019-03-09T01:32:46.702Z,61.41
2019-03-09T01:33:50.153Z,61.44
2019-03-09T01:34:53.637Z,61.35
2019-03-09T01:35:57.092Z,61.26
2019-03-09T01:37:00.547Z,61.24
2019-03-09T01:38:04.079Z,61.17
2019-03-09T01:39:07.765Z,61.13
2019-03-09T01:40:15.838Z,61.12
2019-03-09T01:41:19.304Z,61.13
2019-03-09T01:42:22.758Z,61.12
2019-03-09T01:43:26.229Z,61.14
2019-03-09T01:44:29.681Z,61.20
2019-03-09T01:45:33.163Z,61.27
2019-03-09T01:46:36.631Z,61.22
2019-03-09T01:47:40.085Z,61.26
2019-03-09T01:48:43.549Z,61.25
2019-03-09T01:49:47.082Z,61.33
2019-03-09T01:50:50.580Z,61.46
2019-03-09T01:51:54.106Z,61.42
2019-03-09T01:52:57.628Z,61.38
2019-03-09T01:54:01.188Z,61.43
2019-03-09T01:55:07.396Z,61.48
2019-03-09T01:56:10.936Z,61.48
2019-03-09T01:57:14.398Z,61.40
2019-03-09T01:58:17.863Z,61.37
2019-03-09T01:59:21.319Z,61.28
2019-03-09T02:00:24.847Z,61.21
2019-03-09T02:01:28.323Z,61.18
2019-03-09T02:02:31.843Z,61.17
2019-03-09T02:03:35.314Z,61.11
2019-03-09T02:04:38.764Z,61.00
2019-03-09T02:05:42.214Z,61.02
2019-03-09T02:06:45.693Z,61.07
2019-03-09T02:07:49.140Z,61.10
2019-03-09T02:08:52.665Z,61.09
2019-03-09T02:09:56.358Z,61.06
2019-03-09T02:10:59.809Z,60.99
2019-03-09T02:12:03.284Z,60.95
2019-03-09T02:13:06.799Z,60.94
2019-03-09T02:14:10.251Z,60.95
2019-03-09T02:15:15.047Z,60.95
2019-03-09T02:16:18.491Z,60.95
2019-03-09T02:17:21.962Z,60.99
2019-03-09T02:18:25.486Z,61.05
2019-03-09T02:19:29.007Z,61.05
2019-03-09T02:20:32.457Z,61.06
2019-03-09T02:21:35.930Z,61.04
2019-03-09T02:22:39.384Z,61.04
2019-03-09T02:23:42.837Z,61.05
2019-03-09T02:24:46.286Z,61.08
2019-03-09T02:25:49.749Z,61.05
2019-03-09T02:26:53.200Z,61.02
2019-03-09T02:27:56.678Z,61.02
2019-03-09T02:29:01.103Z,61.00
2019-03-09T02:30:07.813Z,61.04
2019-03-09T02:31:11.329Z,61.07
2019-03-09T02:32:14.786Z,61.05
2019-03-09T02:33:18.246Z,61.08
2019-03-09T02:34:21.719Z,61.11
2019-03-09T02:35:25.292Z,61.12
2019-03-09T02:36:28.810Z,61.64
2019-03-09T02:37:32.310Z,61.98
2019-03-09T02:38:37.455Z,61.96
2019-03-09T02:39:42.549Z,62.08
2019-03-09T02:40:46.006Z,62.08
2019-03-09T02:41:49.456Z,62.11
2019-03-09T02:42:52.993Z,62.10
2019-03-09T02:43:56.465Z,62.04
2019-03-09T02:44:59.916Z,62.20
2019-03-09T02:46:03.373Z,62.47
2019-03-09T02:47:06.825Z,62.57
2019-03-09T02:48:10.320Z,62.65
2019-03-09T02:49:13.758Z,62.69
2019-03-09T02:50:17.751Z,62.58
2019-03-09T02:51:21.202Z,62.49
2019-03-09T02:52:24.660Z,62.48
2019-03-09T02:53:28.246Z,62.47
2019-03-09T02:54:31.731Z,62.59
2019-03-09T02:55:35.172Z,62.57
2019-03-09T02:56:38.642Z,62.60
2019-03-09T02:57:42.174Z,62.54
2019-03-09T02:58:45.627Z,62.50
2019-03-09T02:59:49.102Z,62.44
2019-03-09T03:00:54.249Z,62.42
2019-03-09T03:01:59.361Z,62.40
2019-03-09T03:03:09.482Z,62.46
2019-03-09T03:04:12.942Z,62.56
2019-03-09T03:05:16.587Z,62.52
2019-03-09T03:06:20.086Z,62.49
2019-03-09T03:07:23.603Z,62.46
2019-03-09T03:08:27.056Z,62.46
2019-03-09T03:09:30.510Z,62.46
2019-03-09T03:10:34.005Z,62.38
2019-03-09T03:11:37.638Z,62.28
2019-03-09T03:12:41.091Z,62.25
2019-03-09T03:13:44.542Z,62.12
2019-03-09T03:14:48.000Z,62.00
2019-03-09T03:15:51.469Z,61.96
2019-03-09T03:16:54.926Z,61.99
2019-03-09T03:17:58.381Z,61.99
2019-03-09T03:19:01.824Z,62.19
2019-03-09T03:20:07.223Z,62.26
2019-03-09T03:21:10.692Z,62.26
2019-03-09T03:22:14.143Z,62.25
2019-03-09T03:23:17.606Z,62.26
2019-03-09T03:24:21.061Z,62.29
2019-03-09T03:25:24.644Z,62.36
2019-03-09T03:26:28.121Z,62.43
2019-03-09T03:27:31.574Z,62.50
2019-03-09T03:28:35.034Z,62.53
2019-03-09T03:29:38.472Z,62.54
2019-03-09T03:30:41.927Z,62.48
2019-03-09T03:31:45.418Z,62.48
2019-03-09T03:32:48.862Z,62.48
2019-03-09T03:33:52.376Z,62.49
2019-03-09T03:34:55.906Z,62.45
2019-03-09T03:35:59.357Z,62.43
2019-03-09T03:37:02.840Z,62.37
2019-03-09T03:38:06.285Z,62.42
2019-03-09T03:39:09.879Z,62.42
2019-03-09T03:40:13.571Z,62.39
2019-03-09T03:41:17.032Z,62.53
2019-03-09T03:42:20.642Z,62.56
2019-03-09T03:43:24.092Z,62.60
2019-03-09T03:44:27.612Z,62.54
2019-03-09T03:45:31.081Z,62.52
2019-03-09T03:46:34.516Z,62.50
2019-03-09T03:47:37.985Z,62.48
2019-03-09T03:48:41.449Z,62.54
2019-03-09T03:49:44.953Z,62.63
2019-03-09T03:50:48.424Z,62.61
2019-03-09T03:51:51.886Z,62.58
2019-03-09T03:52:55.344Z,62.53
2019-03-09T03:53:58.820Z,62.57
2019-03-09T03:55:02.327Z,62.60
2019-03-09T03:56:05.841Z,62.60
2019-03-09T03:57:09.366Z,62.65
2019-03-09T03:58:12.959Z,62.80
2019-03-09T03:59:16.370Z,62.76
2019-03-09T04:00:19.973Z,62.67
2019-03-09T04:01:23.481Z,62.76
2019-03-09T04:02:27.020Z,62.76
2019-03-09T04:03:30.485Z,62.71
2019-03-09T04:04:34.059Z,62.63
2019-03-09T04:05:37.693Z,62.69
2019-03-09T04:06:41.265Z,62.54
2019-03-09T04:07:44.813Z,62.39
2019-03-09T04:08:48.368Z,62.36
2019-03-09T04:09:52.151Z,62.22
2019-03-09T04:10:55.688Z,62.21
2019-03-09T04:11:59.124Z,62.17
2019-03-09T04:13:03.312Z,62.04
2019-03-09T04:14:06.927Z,61.97
2019-03-09T04:15:10.702Z,61.86
2019-03-09T04:16:14.170Z,61.76
2019-03-09T04:17:17.652Z,61.61
2019-03-09T04:18:21.212Z,61.57
2019-03-09T04:19:24.702Z,61.47
2019-03-09T04:20:28.137Z,61.30
2019-03-09T04:21:31.583Z,61.25
2019-03-09T04:22:35.052Z,60.97
2019-03-09T04:23:38.507Z,60.80
2019-03-09T04:24:42.139Z,60.56
2019-03-09T04:25:45.608Z,60.43
2019-03-09T04:26:49.134Z,60.28
2019-03-09T04:27:52.656Z,60.03
2019-03-09T04:28:56.171Z,59.91
2019-03-09T04:29:59.702Z,59.62
2019-03-09T04:31:03.183Z,59.43
2019-03-09T04:32:06.623Z,59.19
2019-03-09T04:33:10.094Z,59.07
2019-03-09T04:34:13.559Z,59.06
2019-03-09T04:35:17.020Z,59.15
2019-03-09T04:36:20.491Z,59.11
2019-03-09T04:37:23.938Z,59.11
2019-03-09T04:38:27.380Z,59.04
2019-03-09T04:39:30.845Z,58.99
2019-03-09T04:40:34.305Z,58.79
2019-03-09T04:41:37.790Z,58.82
2019-03-09T04:42:41.330Z,58.80
2019-03-09T04:43:44.773Z,58.76
2019-03-09T04:44:48.239Z,58.77
2019-03-09T04:45:51.697Z,58.76
2019-03-09T04:46:55.145Z,58.80
2019-03-09T04:47:58.626Z,58.76
2019-03-09T04:49:02.066Z,58.86
2019-03-09T04:51:09.682Z,58.71
2019-03-09T04:52:13.139Z,58.68
2019-03-09T04:53:16.605Z,58.65
2019-03-09T04:54:20.054Z,58.58
2019-03-09T04:55:23.510Z,58.61
2019-03-09T04:56:27.156Z,58.65
2019-03-09T04:57:30.614Z,58.64
2019-03-09T04:58:34.065Z,58.69
2019-03-09T04:59:37.522Z,58.67
2019-03-09T05:00:40.982Z,58.64
2019-03-09T05:01:44.458Z,58.67
2019-03-09T05:02:47.909Z,58.71
2019-03-09T05:04:03.226Z,58.80
2019-03-09T05:05:09.220Z,59.00
2019-03-09T05:06:13.042Z,58.84
2019-03-09T05:07:19.955Z,58.88
2019-03-09T05:08:32.313Z,58.84
2019-03-09T05:10:08.594Z,59.00
2019-03-09T05:11:12.586Z,58.89
2019-03-09T05:12:16.046Z,58.89
2019-03-09T05:13:25.098Z,58.93
2019-03-09T05:14:28.555Z,58.93
2019-03-09T05:15:32.017Z,58.97
2019-03-09T05:16:35.473Z,58.94
2019-03-09T05:17:38.964Z,59.07
2019-03-09T05:18:42.424Z,59.08
2019-03-09T05:19:45.877Z,59.16
2019-03-09T05:20:49.335Z,59.24
2019-03-09T05:21:52.790Z,59.29
2019-03-09T05:22:56.263Z,59.27
2019-03-09T05:23:59.726Z,59.28
2019-03-09T05:25:03.247Z,59.34
2019-03-09T05:26:06.700Z,59.39
2019-03-09T05:27:10.162Z,59.41
2019-03-09T05:28:13.640Z,59.41
2019-03-09T05:29:17.093Z,59.43
2019-03-09T05:30:37.601Z,59.44
2019-03-09T05:31:41.049Z,59.51
2019-03-09T05:32:44.510Z,59.44
2019-03-09T05:33:47.998Z,59.47
2019-03-09T05:34:51.438Z,59.46
2019-03-09T05:35:54.894Z,59.41
2019-03-09T05:36:58.347Z,59.42
2019-03-09T05:38:01.811Z,59.47
2019-03-09T05:39:06.121Z,59.56
2019-03-09T05:40:09.712Z,59.54
2019-03-09T05:41:13.169Z,59.58
2019-03-09T05:42:16.626Z,59.70
2019-03-09T05:43:20.081Z,59.69
2019-03-09T05:44:23.562Z,59.79
2019-03-09T05:45:27.151Z,59.84
2019-03-09T05:46:30.601Z,59.82
2019-03-09T05:47:34.057Z,59.82
2019-03-09T05:48:37.510Z,59.85
2019-03-09T05:49:40.990Z,60.03
2019-03-09T05:50:44.509Z,59.78
2019-03-09T05:52:19.613Z,59.90
2019-03-09T05:53:23.126Z,59.81
2019-03-09T05:54:26.581Z,59.84
2019-03-09T05:55:30.061Z,59.93
2019-03-09T05:56:33.514Z,59.93
2019-03-09T05:57:36.972Z,59.94
2019-03-09T05:58:40.447Z,60.11
2019-03-09T05:59:43.903Z,60.16
2019-03-09T06:00:47.377Z,60.11
2019-03-09T06:01:50.838Z,60.18
2019-03-09T06:02:54.289Z,60.27
2019-03-09T06:03:57.765Z,60.36
2019-03-09T06:05:01.259Z,60.32
2019-03-09T06:06:04.832Z,60.22
2019-03-09T06:07:08.306Z,60.23
2019-03-09T06:08:11.742Z,60.28
2019-03-09T06:09:15.190Z,60.21
2019-03-09T06:10:18.706Z,60.23
2019-03-09T06:11:22.134Z,60.21
2019-03-09T06:12:25.607Z,60.28
2019-03-09T06:13:29.151Z,60.17
2019-03-09T06:14:32.590Z,60.27
2019-03-09T06:15:36.080Z,60.31
2019-03-09T06:16:39.524Z,60.34
2019-03-09T06:17:42.969Z,60.34
2019-03-09T06:18:46.442Z,60.45
2019-03-09T06:19:49.886Z,60.45
2019-03-09T06:20:53.378Z,60.48
2019-03-09T06:21:56.854Z,60.58
2019-03-09T06:23:00.298Z,60.59
2019-03-09T06:24:03.840Z,60.57
2019-03-09T06:25:07.356Z,60.59
2019-03-09T06:26:10.806Z,60.72
2019-03-09T06:27:14.277Z,60.63
2019-03-09T06:28:17.717Z,60.63
2019-03-09T06:29:21.224Z,60.60
2019-03-09T06:30:24.653Z,60.54
2019-03-09T06:31:28.112Z,60.57
2019-03-09T06:32:34.632Z,60.48
2019-03-09T06:33:38.073Z,60.50
2019-03-09T06:34:41.521Z,60.72
2019-03-09T06:35:46.136Z,60.75
2019-03-09T06:36:52.685Z,60.80
2019-03-09T06:37:59.207Z,60.88
2019-03-09T06:39:05.354Z,60.98
2019-03-09T06:40:09.764Z,61.09
2019-03-09T06:41:25.059Z,61.02
2019-03-09T06:42:37.103Z,61.03
2019-03-09T06:43:40.544Z,61.07
2019-03-09T06:44:44.015Z,61.02
2019-03-09T06:45:47.457Z,60.92
2019-03-09T06:46:50.928Z,60.92
2019-03-09T06:47:54.416Z,60.93
2019-03-09T06:48:57.861Z,60.95
2019-03-09T06:50:01.327Z,60.90
2019-03-09T06:51:04.837Z,60.93
2019-03-09T06:52:08.282Z,60.92
2019-03-09T06:53:11.781Z,60.98
2019-03-09T06:54:15.217Z,61.09
2019-03-09T06:55:18.690Z,61.12
2019-03-09T06:56:22.160Z,61.15
2019-03-09T06:57:25.606Z,61.15
2019-03-09T06:58:29.098Z,61.20
2019-03-09T06:59:32.554Z,61.24
2019-03-09T07:00:37.839Z,61.43
2019-03-09T07:01:41.313Z,61.56
2019-03-09T07:02:44.753Z,61.66
2019-03-09T07:03:48.308Z,61.56
2019-03-09T07:04:51.787Z,61.04
2019-03-09T07:05:55.296Z,61.04
2019-03-09T07:06:58.770Z,60.74
2019-03-09T07:08:02.389Z,60.46
2019-03-09T07:09:06.703Z,59.96
2019-03-09T07:10:10.361Z,59.79
2019-03-09T07:11:13.817Z,59.51
2019-03-09T07:12:17.273Z,59.25
2019-03-09T07:13:20.734Z,59.10
2019-03-09T07:14:55.522Z,58.99
2019-03-09T07:15:58.973Z,58.75
2019-03-09T07:17:02.501Z,58.41
2019-03-09T07:18:10.807Z,58.23
2019-03-09T07:19:14.280Z,58.09
2019-03-09T07:20:17.741Z,57.96
2019-03-09T07:21:21.223Z,57.75
2019-03-09T07:22:24.736Z,57.61
2019-03-09T07:23:28.186Z,57.45
2019-03-09T07:24:31.668Z,57.24
2019-03-09T07:25:35.485Z,57.29
2019-03-09T07:26:39.010Z,57.00
2019-03-09T07:27:42.471Z,56.89
2019-03-09T07:28:45.924Z,56.57
2019-03-09T07:29:49.402Z,56.38
2019-03-09T07:30:52.938Z,56.19
2019-03-09T07:31:56.462Z,56.07
2019-03-09T07:32:59.923Z,55.84
2019-03-09T07:34:23.522Z,55.72
2019-03-09T07:35:27.078Z,55.51
2019-03-09T07:36:30.538Z,55.04
2019-03-09T07:37:33.990Z,55.04
2019-03-09T07:38:37.451Z,54.77
2019-03-09T07:39:40.906Z,54.49
2019-03-09T07:40:44.449Z,53.78
2019-03-09T07:41:47.916Z,53.67
2019-03-09T07:42:51.436Z,53.25
2019-03-09T07:43:54.898Z,52.81
2019-03-09T07:44:58.356Z,52.79
2019-03-09T07:46:01.899Z,52.50
2019-03-09T07:47:05.435Z,52.47
2019-03-09T07:48:08.974Z,51.88
2019-03-09T07:49:12.427Z,51.85
2019-03-09T07:50:17.127Z,52.02
2019-03-09T07:51:20.602Z,52.00
2019-03-09T07:52:35.238Z,51.16
2019-03-09T07:53:38.696Z,51.39
2019-03-09T07:54:42.155Z,51.11
2019-03-09T07:55:45.617Z,51.03
2019-03-09T07:56:49.098Z,50.67
2019-03-09T07:57:54.077Z,50.60
2019-03-09T07:58:57.527Z,50.49
2019-03-09T08:00:00.982Z,50.62
2019-03-09T08:01:04.502Z,50.94
2019-03-09T08:02:07.988Z,50.89
2019-03-09T08:03:13.383Z,50.79
2019-03-09T08:04:16.630Z,50.60
2019-03-09T08:05:20.085Z,50.52
2019-03-09T08:06:23.539Z,50.54
2019-03-09T08:07:27.020Z,50.40
2019-03-09T08:08:30.480Z,50.37
2019-03-09T08:09:33.937Z,50.20
2019-03-09T08:10:37.426Z,50.19
2019-03-09T08:11:40.862Z,49.98
2019-03-09T08:12:44.489Z,49.90
2019-03-09T08:13:47.946Z,49.73
2019-03-09T08:14:51.482Z,49.77
2019-03-09T08:15:54.939Z,49.65
2019-03-09T08:16:58.390Z,49.72
2019-03-09T08:18:01.872Z,49.67
2019-03-09T08:19:05.358Z,49.56
2019-03-09T08:20:11.150Z,49.35
2019-03-09T08:21:14.619Z,49.42
2019-03-09T08:22:18.090Z,49.37
2019-03-09T08:23:21.583Z,49.21
2019-03-09T08:24:25.057Z,49.16
2019-03-09T08:25:28.498Z,49.16
2019-03-09T08:26:31.941Z,48.90
2019-03-09T08:27:35.428Z,48.99
2019-03-09T08:28:38.958Z,49.01
2019-03-09T08:29:42.482Z,49.24
2019-03-09T08:30:45.988Z,49.29
2019-03-09T08:31:49.424Z,49.44
2019-03-09T08:32:52.966Z,49.39
2019-03-09T08:33:56.501Z,49.43
2019-03-09T08:34:59.950Z,49.39
2019-03-09T08:36:03.479Z,49.58
2019-03-09T08:37:06.905Z,49.67
2019-03-09T08:38:10.377Z,49.78
2019-03-09T08:39:13.884Z,49.83
2019-03-09T08:40:18.544Z,49.95
2019-03-09T08:41:22.022Z,50.03
2019-03-09T08:42:25.470Z,50.21
2019-03-09T08:43:28.919Z,50.40
2019-03-09T08:44:32.479Z,50.57
2019-03-09T08:45:35.913Z,50.62
2019-03-09T08:46:39.396Z,50.70
2019-03-09T08:47:51.643Z,50.72
2019-03-09T08:48:48.018Z,50.85
2019-03-09T08:49:51.582Z,50.96
2019-03-09T08:50:55.046Z,51.05
2019-03-09T08:51:58.487Z,51.09
2019-03-09T08:53:02.018Z,51.15
2019-03-09T08:54:05.528Z,51.31
2019-03-09T08:55:10.867Z,51.42
2019-03-09T08:56:14.315Z,51.61
2019-03-09T08:57:17.854Z,51.73
2019-03-09T08:58:21.333Z,51.81
2019-03-09T08:59:24.965Z,51.96
2019-03-09T09:00:30.921Z,52.05
2019-03-09T09:01:34.507Z,52.23
2019-03-09T09:02:37.979Z,52.31
2019-03-09T09:03:41.450Z,52.44
2019-03-09T09:04:44.927Z,52.55
2019-03-09T09:05:48.415Z,52.69
2019-03-09T09:06:51.885Z,52.80
2019-03-09T09:07:55.327Z,52.89
2019-03-09T09:08:58.770Z,52.74
2019-03-09T09:10:02.248Z,52.74
2019-03-09T09:11:05.869Z,53.32
2019-03-09T09:12:09.337Z,53.44
2019-03-09T09:13:12.835Z,53.54
2019-03-09T09:14:16.270Z,53.60
2019-03-09T09:15:19.821Z,53.72
2019-03-09T09:16:23.289Z,53.78
2019-03-09T09:17:26.735Z,53.88
2019-03-09T09:18:30.220Z,53.96
2019-03-09T09:19:33.665Z,54.05
2019-03-09T09:20:37.158Z,54.10
2019-03-09T09:21:40.744Z,54.12
2019-03-09T09:22:44.179Z,54.16
2019-03-09T09:23:47.651Z,54.18
2019-03-09T09:24:51.130Z,54.36
2019-03-09T09:25:54.617Z,54.28
2019-03-09T09:27:03.266Z,54.08
2019-03-09T09:28:06.766Z,53.87
2019-03-09T09:29:10.208Z,53.50
2019-03-09T09:30:16.562Z,53.42
2019-03-09T09:31:20.044Z,53.35
2019-03-09T09:32:23.529Z,53.40
2019-03-09T09:33:26.989Z,53.45
2019-03-09T09:34:30.465Z,54.59
2019-03-09T09:35:34.057Z,54.33
2019-03-09T09:36:45.172Z,54.24
2019-03-09T09:37:48.720Z,54.22
2019-03-09T09:38:52.245Z,54.10
2019-03-09T09:39:55.715Z,54.17
2019-03-09T09:40:59.161Z,54.13
2019-03-09T09:42:02.633Z,54.08
2019-03-09T09:43:06.123Z,54.00
2019-03-09T09:44:09.714Z,53.93
2019-03-09T09:45:14.346Z,54.00
2019-03-09T09:46:17.922Z,54.04
2019-03-09T09:47:21.370Z,54.32
2019-03-09T09:48:24.935Z,54.30
2019-03-09T09:49:28.378Z,54.32
2019-03-09T09:50:31.870Z,54.39
2019-03-09T09:51:35.343Z,54.48
2019-03-09T09:52:38.866Z,54.53
2019-03-09T09:53:42.491Z,54.53
2019-03-09T09:54:45.936Z,54.58
2019-03-09T09:55:49.389Z,54.60
2019-03-09T09:56:52.869Z,54.74
2019-03-09T09:57:56.317Z,54.80
2019-03-09T09:58:59.810Z,54.93
2019-03-09T10:00:03.828Z,55.32
2019-03-09T10:01:07.391Z,55.45
2019-03-09T10:02:11.112Z,55.68
2019-03-09T10:03:14.543Z,55.74
2019-03-09T10:04:18.047Z,55.89
2019-03-09T10:05:22.303Z,56.11
2019-03-09T10:06:25.811Z,56.28
2019-03-09T10:07:29.358Z,56.42
2019-03-09T10:08:33.209Z,56.39
2019-03-09T10:09:36.705Z,56.54
2019-03-09T10:10:40.636Z,56.65
2019-03-09T10:11:44.167Z,56.76
2019-03-09T10:12:47.636Z,56.80
2019-03-09T10:13:51.178Z,56.92
2019-03-09T10:14:54.691Z,56.85
2019-03-09T10:15:58.204Z,56.83
2019-03-09T10:17:01.702Z,56.46
2019-03-09T10:18:05.265Z,56.49
2019-03-09T10:19:11.043Z,56.40
2019-03-09T10:20:14.168Z,56.24
2019-03-09T10:21:17.647Z,56.19
2019-03-09T10:22:21.124Z,56.19
2019-03-09T10:23:24.572Z,56.20
2019-03-09T10:24:28.064Z,56.17
2019-03-09T10:25:31.560Z,56.17
2019-03-09T10:26:35.001Z,56.12
2019-03-09T10:27:38.479Z,56.11
2019-03-09T10:28:41.928Z,56.11
2019-03-09T10:29:45.379Z,56.11
2019-03-09T10:30:48.869Z,56.07
2019-03-09T10:31:52.370Z,56.12
2019-03-09T10:32:55.839Z,56.09
2019-03-09T10:33:59.341Z,56.07
2019-03-09T10:35:02.854Z,56.08
2019-03-09T10:36:06.427Z,56.09
2019-03-09T10:37:09.891Z,56.10
2019-03-09T10:38:13.428Z,56.09
2019-03-09T10:39:16.974Z,56.11
2019-03-09T10:40:20.572Z,56.10
2019-03-09T10:41:24.047Z,56.11
2019-03-09T10:42:27.627Z,56.12
2019-03-09T10:43:31.077Z,56.13
2019-03-09T10:44:34.556Z,56.15
2019-03-09T10:45:38.103Z,56.15
2019-03-09T10:46:41.631Z,56.15
2019-03-09T10:47:45.162Z,56.17
2019-03-09T10:48:48.691Z,56.17
2019-03-09T10:49:52.152Z,56.18
2019-03-09T10:50:55.629Z,56.20
2019-03-09T10:51:59.434Z,56.21
2019-03-09T10:53:02.947Z,56.21
2019-03-09T10:54:06.410Z,56.23
2019-03-09T10:55:12.405Z,56.24
2019-03-09T10:56:15.877Z,56.25
2019-03-09T10:57:19.412Z,56.30
2019-03-09T10:58:22.876Z,56.26
2019-03-09T10:59:26.411Z,56.22
2019-03-09T11:00:38.231Z,56.19
2019-03-09T11:01:41.802Z,56.14
2019-03-09T11:02:45.328Z,56.12
2019-03-09T11:03:48.868Z,56.05
2019-03-09T11:04:52.341Z,56.01
2019-03-09T11:05:55.869Z,55.91
2019-03-09T11:06:59.379Z,55.85
2019-03-09T11:08:02.974Z,55.82
2019-03-09T11:09:07.265Z,55.82
2019-03-09T11:10:10.867Z,55.80
2019-03-09T11:11:14.541Z,55.74
2019-03-09T11:12:18.133Z,55.70
2019-03-09T11:13:21.588Z,55.66
2019-03-09T11:14:25.329Z,55.59
2019-03-09T11:15:28.927Z,55.58
2019-03-09T11:16:32.582Z,55.57
2019-03-09T11:17:36.122Z,55.57
2019-03-09T11:18:39.652Z,55.58
2019-03-09T11:19:43.089Z,55.56
2019-03-09T11:20:46.771Z,55.55
2019-03-09T11:21:50.235Z,55.56
2019-03-09T11:22:53.949Z,55.51
2019-03-09T11:23:57.401Z,55.53
2019-03-09T11:25:03.653Z,55.51
2019-03-09T11:26:06.247Z,55.50
2019-03-09T11:27:09.760Z,55.42
2019-03-09T11:28:13.942Z,55.39
2019-03-09T11:29:17.856Z,55.36
2019-03-09T11:30:24.362Z,55.36
2019-03-09T11:31:27.813Z,55.34
2019-03-09T11:32:31.273Z,55.30
2019-03-09T11:33:34.751Z,55.26
2019-03-09T11:34:38.203Z,55.21
2019-03-09T11:35:41.666Z,55.12
2019-03-09T11:36:45.122Z,55.16
2019-03-09T11:37:48.721Z,55.20
2019-03-09T11:38:52.199Z,55.25
2019-03-09T11:39:55.822Z,55.28
2019-03-09T11:41:00.875Z,55.23
2019-03-09T11:42:04.796Z,55.20
2019-03-09T11:43:08.317Z,55.21
2019-03-09T11:44:11.788Z,55.23
2019-03-09T11:45:19.208Z,55.29
2019-03-09T11:46:22.866Z,55.29
2019-03-09T11:47:26.370Z,55.28
2019-03-09T11:48:29.838Z,55.35
2019-03-09T11:49:33.306Z,55.52
2019-03-09T11:50:36.911Z,55.53
2019-03-09T11:51:40.580Z,55.61
2019-03-09T11:52:44.163Z,55.69
2019-03-09T11:53:47.643Z,55.70
2019-03-09T11:54:51.133Z,55.74
2019-03-09T11:55:54.659Z,55.75
2019-03-09T11:56:58.123Z,55.70
2019-03-09T11:58:01.565Z,55.70
2019-03-09T11:59:05.081Z,55.68
2019-03-09T12:00:15.918Z,55.60
2019-03-09T12:01:19.430Z,55.58
2019-03-09T12:02:22.973Z,55.58
2019-03-09T12:03:26.713Z,55.58
2019-03-09T12:04:30.177Z,55.57
2019-03-09T12:05:33.648Z,55.54
2019-03-09T12:06:37.092Z,55.55
2019-03-09T12:07:40.540Z,55.56
2019-03-09T12:08:44.019Z,55.52
2019-03-09T12:09:47.483Z,55.52
2019-03-09T12:10:50.951Z,55.53
2019-03-09T12:12:02.312Z,55.53
2019-03-09T12:13:05.841Z,55.50
2019-03-09T12:14:09.320Z,55.46
2019-03-09T12:15:17.306Z,55.43
2019-03-09T12:16:20.839Z,55.39
2019-03-09T12:17:24.315Z,55.35
2019-03-09T12:18:27.759Z,55.34
2019-03-09T12:19:31.320Z,55.32
2019-03-09T12:20:34.798Z,55.26
2019-03-09T12:21:38.404Z,55.26
2019-03-09T12:22:41.883Z,55.24
2019-03-09T12:23:45.335Z,55.23
2019-03-09T12:24:51.604Z,55.21
2019-03-09T12:25:55.099Z,55.18
2019-03-09T12:26:58.618Z,55.18
2019-03-09T12:28:02.096Z,55.20
2019-03-09T12:29:05.593Z,55.25
2019-03-09T12:30:12.038Z,55.32
2019-03-09T12:31:15.578Z,55.46
2019-03-09T12:32:19.038Z,55.50
2019-03-09T12:33:22.531Z,55.55
2019-03-09T12:34:26.003Z,55.69
2019-03-09T12:35:29.578Z,55.74
2019-03-09T12:36:33.055Z,55.79
2019-03-09T12:37:36.661Z,55.95
2019-03-09T12:38:40.097Z,55.98
2019-03-09T12:39:43.600Z,55.99
2019-03-09T12:40:47.057Z,56.04
2019-03-09T12:41:52.402Z,56.08
2019-03-09T12:42:55.752Z,56.12
2019-03-09T12:43:59.199Z,56.18
2019-03-09T12:45:02.740Z,56.22
2019-03-09T12:46:06.320Z,56.25
2019-03-09T12:47:09.763Z,56.26
2019-03-09T12:48:13.279Z,56.32
2019-03-09T12:49:16.717Z,56.32
2019-03-09T12:50:24.061Z,56.39
2019-03-09T12:51:27.556Z,56.42
2019-03-09T12:52:31.408Z,56.48
2019-03-09T12:53:34.872Z,56.52
2019-03-09T12:54:38.329Z,56.56
2019-03-09T12:55:41.783Z,56.63
2019-03-09T12:56:45.263Z,56.63
2019-03-09T12:57:48.729Z,56.67
2019-03-09T12:58:52.168Z,57.09
2019-03-09T12:59:55.769Z,56.96
2019-03-09T13:00:59.227Z,56.87
2019-03-09T13:02:02.711Z,56.80
2019-03-09T13:03:06.233Z,56.70
2019-03-09T13:04:11.526Z,56.14
2019-03-09T13:05:16.823Z,55.93
2019-03-09T13:06:20.356Z,55.76
2019-03-09T13:07:23.835Z,55.71
2019-03-09T13:08:27.290Z,55.75
2019-03-09T13:09:30.745Z,55.75
2019-03-09T13:10:34.293Z,55.79
2019-03-09T13:11:37.806Z,55.82
2019-03-09T13:12:41.349Z,55.92
2019-03-09T13:13:45.011Z,55.99
2019-03-09T13:14:48.555Z,56.06
2019-03-09T13:15:52.136Z,56.12
2019-03-09T13:16:56.267Z,56.17
2019-03-09T13:17:59.726Z,56.22
2019-03-09T13:19:03.186Z,56.26
2019-03-09T13:20:08.818Z,56.33
2019-03-09T13:21:12.266Z,56.37
2019-03-09T13:22:15.771Z,56.42
2019-03-09T13:23:19.439Z,56.49
2019-03-09T13:24:23.005Z,56.51
2019-03-09T13:25:26.484Z,56.57
2019-03-09T13:26:31.589Z,56.76
2019-03-09T13:27:35.048Z,56.79
2019-03-09T13:28:38.550Z,56.82
2019-03-09T13:29:42.018Z,56.85
2019-03-09T13:30:45.482Z,56.93
2019-03-09T13:31:49.198Z,56.98
2019-03-09T13:32:52.686Z,57.10
2019-03-09T13:33:56.169Z,57.15
2019-03-09T13:35:00.324Z,57.21
2019-03-09T13:36:03.752Z,57.21
2019-03-09T13:37:07.274Z,57.22
2019-03-09T13:38:10.768Z,57.21
2019-03-09T13:39:14.254Z,57.23
2019-03-09T13:40:17.849Z,57.23
2019-03-09T13:41:21.312Z,57.24
2019-03-09T13:42:24.786Z,57.49
2019-03-09T13:43:28.246Z,57.53
2019-03-09T13:44:31.724Z,57.54
2019-03-09T13:45:35.174Z,57.41